sensor_id;sensor_type;location;lat;lon;timestamp;temperature;humidity
3942;DHT22;1985;48.592;8.850;2023-04-09T00:01:48;8.60;99.90
3942;DHT22;1985;48.592;8.850;2023-04-09T00:04:14;8.60;99.90
3942;DHT22;1985;48.592;8.850;2023-04-09T00:06:39;8.70;99.90
3942;DHT22;1985;48.592;8.850;2023-04-09T00:09:05;8.70;99.90
3942;DHT22;1985;48.592;8.850;2023-04-09T00:11:31;8.70;99.90
3942;DHT22;1985;48.592;8.850;2023-04-09T00:13:57;8.70;99.90
3942;DHT22;1985;48.592;8.850;2023-04-09T00:16:23;8.70;99.90
3942;DHT22;1985;48.592;8.850;2023-04-09T00:18:48;8.60;99.90
3942;DHT22;1985;48.592;8.850;2023-04-09T00:21:15;8.70;99.90
3942;DHT22;1985;48.592;8.850;2023-04-09T00:23:41;8.70;99.90
3942;DHT22;1985;48.592;8.850;2023-04-09T00:26:06;8.70;99.90
3942;DHT22;1985;48.592;8.850;2023-04-09T00:28:32;8.70;99.90
3942;DHT22;1985;48.592;8.850;2023-04-09T00:30:58;8.60;99.90
3942;DHT22;1985;48.592;8.850;2023-04-09T00:33:24;8.60;99.90
3942;DHT22;1985;48.592;8.850;2023-04-09T00:35:50;8.50;99.90
3942;DHT22;1985;48.592;8.850;2023-04-09T00:38:15;8.50;99.90
3942;DHT22;1985;48.592;8.850;2023-04-09T00:40:41;8.50;99.90
3942;DHT22;1985;48.592;8.850;2023-04-09T00:43:07;8.50;99.90
3942;DHT22;1985;48.592;8.850;2023-04-09T00:45:32;8.50;99.90
3942;DHT22;1985;48.592;8.850;2023-04-09T00:47:58;8.50;99.90
3942;DHT22;1985;48.592;8.850;2023-04-09T00:50:24;8.50;99.90
3942;DHT22;1985;48.592;8.850;2023-04-09T00:52:49;8.50;99.90
3942;DHT22;1985;48.592;8.850;2023-04-09T00:55:19;8.40;99.90
3942;DHT22;1985;48.592;8.850;2023-04-09T00:57:45;8.30;99.90
3942;DHT22;1985;48.592;8.850;2023-04-09T01:00:11;8.30;99.90
3942;DHT22;1985;48.592;8.850;2023-04-09T01:02:38;8.20;99.90
3942;DHT22;1985;48.592;8.850;2023-04-09T01:05:04;8.00;99.90
3942;DHT22;1985;48.592;8.850;2023-04-09T01:10:37;8.10;99.90
3942;DHT22;1985;48.592;8.850;2023-04-09T01:13:22;8.20;99.90
3942;DHT22;1985;48.592;8.850;2023-04-09T01:15:55;8.10;99.90
3942;DHT22;1985;48.592;8.850;2023-04-09T01:20:58;8.00;99.90
3942;DHT22;1985;48.592;8.850;2023-04-09T01:29:17;8.10;99.90
3942;DHT22;1985;48.592;8.850;2023-04-09T01:31:44;8.10;99.90
3942;DHT22;1985;48.592;8.850;2023-04-09T01:34:12;8.10;99.90
3942;DHT22;1985;48.592;8.850;2023-04-09T01:36:39;8.20;99.90
3942;DHT22;1985;48.592;8.850;2023-04-09T01:39:06;8.20;99.90
3942;DHT22;1985;48.592;8.850;2023-04-09T01:41:34;8.30;99.90
3942;DHT22;1985;48.592;8.850;2023-04-09T01:44:02;8.30;99.90
3942;DHT22;1985;48.592;8.850;2023-04-09T01:46:28;8.30;99.90
3942;DHT22;1985;48.592;8.850;2023-04-09T01:48:56;8.40;99.90
3942;DHT22;1985;48.592;8.850;2023-04-09T01:51:22;8.40;99.90
3942;DHT22;1985;48.592;8.850;2023-04-09T01:53:48;8.50;99.90
3942;DHT22;1985;48.592;8.850;2023-04-09T01:56:14;8.50;99.90
3942;DHT22;1985;48.592;8.850;2023-04-09T01:58:40;8.50;99.90
3942;DHT22;1985;48.592;8.850;2023-04-09T02:01:09;8.60;99.90
3942;DHT22;1985;48.592;8.850;2023-04-09T02:03:50;8.60;99.90
3942;DHT22;1985;48.592;8.850;2023-04-09T02:06:47;8.50;99.90
3942;DHT22;1985;48.592;8.850;2023-04-09T02:09:16;8.50;99.90
3942;DHT22;1985;48.592;8.850;2023-04-09T02:11:43;8.60;99.90
3942;DHT22;1985;48.592;8.850;2023-04-09T02:14:11;8.60;99.90
3942;DHT22;1985;48.592;8.850;2023-04-09T02:16:38;8.60;99.90
3942;DHT22;1985;48.592;8.850;2023-04-09T02:19:04;8.60;99.90
3942;DHT22;1985;48.592;8.850;2023-04-09T02:21:30;8.60;99.90
3942;DHT22;1985;48.592;8.850;2023-04-09T02:23:56;8.60;99.90
3942;DHT22;1985;48.592;8.850;2023-04-09T02:26:22;8.50;99.90
3942;DHT22;1985;48.592;8.850;2023-04-09T02:28:48;8.50;99.90
3942;DHT22;1985;48.592;8.850;2023-04-09T02:31:14;8.60;99.90
3942;DHT22;1985;48.592;8.850;2023-04-09T02:33:39;8.60;99.90
3942;DHT22;1985;48.592;8.850;2023-04-09T02:36:06;8.60;99.90
3942;DHT22;1985;48.592;8.850;2023-04-09T02:38:31;8.60;99.90
3942;DHT22;1985;48.592;8.850;2023-04-09T02:40:57;8.60;99.90
3942;DHT22;1985;48.592;8.850;2023-04-09T02:43:23;8.60;99.90
3942;DHT22;1985;48.592;8.850;2023-04-09T02:45:49;8.60;99.90
3942;DHT22;1985;48.592;8.850;2023-04-09T02:48:14;8.60;99.90
3942;DHT22;1985;48.592;8.850;2023-04-09T02:50:40;8.50;99.90
3942;DHT22;1985;48.592;8.850;2023-04-09T02:53:06;8.50;99.90
3942;DHT22;1985;48.592;8.850;2023-04-09T02:55:31;8.50;99.90
3942;DHT22;1985;48.592;8.850;2023-04-09T02:57:57;8.50;99.90
3942;DHT22;1985;48.592;8.850;2023-04-09T03:00:22;8.50;99.90
3942;DHT22;1985;48.592;8.850;2023-04-09T03:02:48;8.50;99.90
3942;DHT22;1985;48.592;8.850;2023-04-09T03:05:14;8.50;99.90
3942;DHT22;1985;48.592;8.850;2023-04-09T03:07:39;8.40;99.90
3942;DHT22;1985;48.592;8.850;2023-04-09T03:10:05;8.40;99.90
3942;DHT22;1985;48.592;8.850;2023-04-09T03:12:31;8.40;99.90
3942;DHT22;1985;48.592;8.850;2023-04-09T03:14:56;8.30;99.90
3942;DHT22;1985;48.592;8.850;2023-04-09T03:17:22;8.30;99.90
3942;DHT22;1985;48.592;8.850;2023-04-09T03:19:51;8.30;99.90
3942;DHT22;1985;48.592;8.850;2023-04-09T03:22:17;8.30;99.90
3942;DHT22;1985;48.592;8.850;2023-04-09T03:24:42;8.20;99.90
3942;DHT22;1985;48.592;8.850;2023-04-09T03:27:08;8.20;99.90
3942;DHT22;1985;48.592;8.850;2023-04-09T03:29:34;8.20;99.90
3942;DHT22;1985;48.592;8.850;2023-04-09T03:31:59;8.20;99.90
3942;DHT22;1985;48.592;8.850;2023-04-09T03:34:25;8.20;99.90
3942;DHT22;1985;48.592;8.850;2023-04-09T03:36:50;8.20;99.90
3942;DHT22;1985;48.592;8.850;2023-04-09T03:39:16;8.20;99.90
3942;DHT22;1985;48.592;8.850;2023-04-09T03:41:42;8.20;99.90
3942;DHT22;1985;48.592;8.850;2023-04-09T03:44:07;8.20;99.90
3942;DHT22;1985;48.592;8.850;2023-04-09T03:46:33;8.20;99.90
3942;DHT22;1985;48.592;8.850;2023-04-09T03:48:58;8.10;99.90
3942;DHT22;1985;48.592;8.850;2023-04-09T03:51:24;8.10;99.90
3942;DHT22;1985;48.592;8.850;2023-04-09T03:53:49;8.10;99.90
3942;DHT22;1985;48.592;8.850;2023-04-09T03:56:15;8.00;99.90
3942;DHT22;1985;48.592;8.850;2023-04-09T03:58:41;8.00;99.90
3942;DHT22;1985;48.592;8.850;2023-04-09T04:01:06;8.00;99.90
3942;DHT22;1985;48.592;8.850;2023-04-09T04:03:32;8.00;99.90
3942;DHT22;1985;48.592;8.850;2023-04-09T04:06:02;8.00;99.90
3942;DHT22;1985;48.592;8.850;2023-04-09T04:08:28;8.00;99.90
3942;DHT22;1985;48.592;8.850;2023-04-09T04:10:54;8.00;99.90
3942;DHT22;1985;48.592;8.850;2023-04-09T04:13:20;8.00;99.90
3942;DHT22;1985;48.592;8.850;2023-04-09T04:15:45;8.00;99.90
3942;DHT22;1985;48.592;8.850;2023-04-09T04:18:11;7.90;99.90
3942;DHT22;1985;48.592;8.850;2023-04-09T04:20:37;7.90;99.90
3942;DHT22;1985;48.592;8.850;2023-04-09T04:23:03;7.90;99.90
3942;DHT22;1985;48.592;8.850;2023-04-09T04:25:29;7.80;99.90
3942;DHT22;1985;48.592;8.850;2023-04-09T04:27:56;7.80;99.90
3942;DHT22;1985;48.592;8.850;2023-04-09T04:30:21;7.90;99.90
3942;DHT22;1985;48.592;8.850;2023-04-09T04:32:47;7.90;99.90
3942;DHT22;1985;48.592;8.850;2023-04-09T04:35:13;7.90;99.90
3942;DHT22;1985;48.592;8.850;2023-04-09T04:37:39;7.90;99.90
3942;DHT22;1985;48.592;8.850;2023-04-09T04:40:06;7.80;99.90
3942;DHT22;1985;48.592;8.850;2023-04-09T04:42:32;7.80;99.90
3942;DHT22;1985;48.592;8.850;2023-04-09T04:44:58;7.80;99.90
3942;DHT22;1985;48.592;8.850;2023-04-09T04:47:23;7.80;99.90
3942;DHT22;1985;48.592;8.850;2023-04-09T04:49:49;7.80;99.90
3942;DHT22;1985;48.592;8.850;2023-04-09T04:52:15;7.80;99.90
3942;DHT22;1985;48.592;8.850;2023-04-09T04:54:40;7.90;99.90
3942;DHT22;1985;48.592;8.850;2023-04-09T04:57:06;7.90;99.90
3942;DHT22;1985;48.592;8.850;2023-04-09T04:59:31;7.90;99.90
3942;DHT22;1985;48.592;8.850;2023-04-09T05:01:57;7.90;99.90
3942;DHT22;1985;48.592;8.850;2023-04-09T05:04:23;7.80;99.90
3942;DHT22;1985;48.592;8.850;2023-04-09T05:06:49;7.90;99.90
3942;DHT22;1985;48.592;8.850;2023-04-09T05:09:14;7.90;99.90
3942;DHT22;1985;48.592;8.850;2023-04-09T05:11:40;7.90;99.90
3942;DHT22;1985;48.592;8.850;2023-04-09T05:14:06;7.90;99.90
3942;DHT22;1985;48.592;8.850;2023-04-09T05:16:31;8.00;99.90
3942;DHT22;1985;48.592;8.850;2023-04-09T05:18:57;8.00;99.90
3942;DHT22;1985;48.592;8.850;2023-04-09T05:21:23;8.00;99.90
3942;DHT22;1985;48.592;8.850;2023-04-09T05:23:48;8.10;99.90
3942;DHT22;1985;48.592;8.850;2023-04-09T05:26:14;8.10;99.90
3942;DHT22;1985;48.592;8.850;2023-04-09T05:28:40;8.10;99.90
3942;DHT22;1985;48.592;8.850;2023-04-09T05:31:05;8.30;99.90
3942;DHT22;1985;48.592;8.850;2023-04-09T05:33:37;8.30;99.90
3942;DHT22;1985;48.592;8.850;2023-04-09T05:36:04;8.20;99.90
3942;DHT22;1985;48.592;8.850;2023-04-09T05:38:30;8.30;99.90
3942;DHT22;1985;48.592;8.850;2023-04-09T05:40:55;8.40;99.90
3942;DHT22;1985;48.592;8.850;2023-04-09T05:43:21;8.50;99.90
3942;DHT22;1985;48.592;8.850;2023-04-09T05:45:47;8.60;99.90
3942;DHT22;1985;48.592;8.850;2023-04-09T05:48:12;8.60;99.90
3942;DHT22;1985;48.592;8.850;2023-04-09T05:50:38;8.70;99.90
3942;DHT22;1985;48.592;8.850;2023-04-09T05:53:04;8.80;99.90
3942;DHT22;1985;48.592;8.850;2023-04-09T05:55:33;8.90;99.90
3942;DHT22;1985;48.592;8.850;2023-04-09T05:57:59;8.80;99.90
3942;DHT22;1985;48.592;8.850;2023-04-09T06:00:25;8.80;99.90
3942;DHT22;1985;48.592;8.850;2023-04-09T06:02:50;8.80;99.90
3942;DHT22;1985;48.592;8.850;2023-04-09T06:05:16;8.70;99.90
3942;DHT22;1985;48.592;8.850;2023-04-09T06:07:41;8.60;99.90
3942;DHT22;1985;48.592;8.850;2023-04-09T06:10:07;8.60;99.90
3942;DHT22;1985;48.592;8.850;2023-04-09T06:12:34;8.60;99.90
3942;DHT22;1985;48.592;8.850;2023-04-09T06:15:00;8.60;99.90
3942;DHT22;1985;48.592;8.850;2023-04-09T06:17:25;8.70;99.90
3942;DHT22;1985;48.592;8.850;2023-04-09T06:19:51;8.80;99.90
3942;DHT22;1985;48.592;8.850;2023-04-09T06:22:16;8.80;99.90
3942;DHT22;1985;48.592;8.850;2023-04-09T06:24:42;8.80;99.90
3942;DHT22;1985;48.592;8.850;2023-04-09T06:27:08;8.90;99.90
3942;DHT22;1985;48.592;8.850;2023-04-09T06:29:33;8.90;99.90
3942;DHT22;1985;48.592;8.850;2023-04-09T06:31:59;8.90;99.90
3942;DHT22;1985;48.592;8.850;2023-04-09T06:34:25;8.90;99.90
3942;DHT22;1985;48.592;8.850;2023-04-09T06:36:51;9.00;99.90
3942;DHT22;1985;48.592;8.850;2023-04-09T06:39:16;9.10;99.90
3942;DHT22;1985;48.592;8.850;2023-04-09T06:41:42;9.30;99.90
3942;DHT22;1985;48.592;8.850;2023-04-09T06:44:07;9.40;99.90
3942;DHT22;1985;48.592;8.850;2023-04-09T06:46:33;9.50;99.90
3942;DHT22;1985;48.592;8.850;2023-04-09T06:48:59;9.50;99.90
3942;DHT22;1985;48.592;8.850;2023-04-09T06:51:24;9.30;99.90
3942;DHT22;1985;48.592;8.850;2023-04-09T06:53:50;9.20;99.90
3942;DHT22;1985;48.592;8.850;2023-04-09T06:56:15;9.20;99.90
3942;DHT22;1985;48.592;8.850;2023-04-09T06:58:41;9.30;99.90
3942;DHT22;1985;48.592;8.850;2023-04-09T07:01:07;9.30;99.90
3942;DHT22;1985;48.592;8.850;2023-04-09T07:03:32;9.20;99.90
3942;DHT22;1985;48.592;8.850;2023-04-09T07:05:58;9.10;99.90
3942;DHT22;1985;48.592;8.850;2023-04-09T07:08:24;9.00;99.90
3942;DHT22;1985;48.592;8.850;2023-04-09T07:10:49;8.90;99.90
3942;DHT22;1985;48.592;8.850;2023-04-09T07:13:15;8.90;99.90
3942;DHT22;1985;48.592;8.850;2023-04-09T07:15:41;9.10;99.90
3942;DHT22;1985;48.592;8.850;2023-04-09T07:18:06;9.30;99.90
3942;DHT22;1985;48.592;8.850;2023-04-09T07:20:32;9.40;99.90
3942;DHT22;1985;48.592;8.850;2023-04-09T07:22:58;9.60;99.90
3942;DHT22;1985;48.592;8.850;2023-04-09T07:25:24;9.80;99.90
3942;DHT22;1985;48.592;8.850;2023-04-09T07:27:50;9.80;99.90
3942;DHT22;1985;48.592;8.850;2023-04-09T07:30:16;9.90;99.90
3942;DHT22;1985;48.592;8.850;2023-04-09T07:32:42;10.00;99.90
3942;DHT22;1985;48.592;8.850;2023-04-09T07:35:08;10.10;99.90
3942;DHT22;1985;48.592;8.850;2023-04-09T07:37:34;10.10;99.90
3942;DHT22;1985;48.592;8.850;2023-04-09T07:40:00;10.10;99.90
3942;DHT22;1985;48.592;8.850;2023-04-09T07:42:28;10.10;99.90
3942;DHT22;1985;48.592;8.850;2023-04-09T07:44:54;10.20;99.90
3942;DHT22;1985;48.592;8.850;2023-04-09T07:47:21;9.70;99.90
3942;DHT22;1985;48.592;8.850;2023-04-09T07:49:47;9.60;99.90
3942;DHT22;1985;48.592;8.850;2023-04-09T07:52:13;9.80;99.90
3942;DHT22;1985;48.592;8.850;2023-04-09T07:54:39;10.00;99.90
3942;DHT22;1985;48.592;8.850;2023-04-09T07:57:05;10.50;99.90
3942;DHT22;1985;48.592;8.850;2023-04-09T07:59:31;11.00;99.90
3942;DHT22;1985;48.592;8.850;2023-04-09T08:01:58;11.40;99.90
3942;DHT22;1985;48.592;8.850;2023-04-09T08:04:23;11.90;99.90
3942;DHT22;1985;48.592;8.850;2023-04-09T08:06:49;12.10;99.90
3942;DHT22;1985;48.592;8.850;2023-04-09T08:09:16;12.00;99.90
3942;DHT22;1985;48.592;8.850;2023-04-09T08:11:42;12.00;99.90
3942;DHT22;1985;48.592;8.850;2023-04-09T08:14:10;12.10;99.90
3942;DHT22;1985;48.592;8.850;2023-04-09T08:16:42;12.50;99.50
3942;DHT22;1985;48.592;8.850;2023-04-09T08:19:09;12.80;98.60
3942;DHT22;1985;48.592;8.850;2023-04-09T08:21:38;13.00;97.00
3942;DHT22;1985;48.592;8.850;2023-04-09T08:24:07;12.90;96.10
3942;DHT22;1985;48.592;8.850;2023-04-09T08:26:36;13.10;95.50
3942;DHT22;1985;48.592;8.850;2023-04-09T08:29:01;13.30;94.10
3942;DHT22;1985;48.592;8.850;2023-04-09T08:31:27;13.20;91.80
3942;DHT22;1985;48.592;8.850;2023-04-09T08:33:52;13.10;90.80
3942;DHT22;1985;48.592;8.850;2023-04-09T08:36:19;13.00;91.20
3942;DHT22;1985;48.592;8.850;2023-04-09T08:38:44;13.10;91.60
3942;DHT22;1985;48.592;8.850;2023-04-09T08:41:19;13.20;86.80
3942;DHT22;1985;48.592;8.850;2023-04-09T08:43:46;12.80;87.10
3942;DHT22;1985;48.592;8.850;2023-04-09T08:46:16;12.30;85.90
3942;DHT22;1985;48.592;8.850;2023-04-09T08:48:43;12.20;86.10
3942;DHT22;1985;48.592;8.850;2023-04-09T08:51:14;12.30;85.60
3942;DHT22;1985;48.592;8.850;2023-04-09T08:53:46;12.30;84.20
3942;DHT22;1985;48.592;8.850;2023-04-09T08:56:13;12.10;81.40
3942;DHT22;1985;48.592;8.850;2023-04-09T08:58:42;11.90;81.80
3942;DHT22;1985;48.592;8.850;2023-04-09T09:04:10;12.60;80.70
3942;DHT22;1985;48.592;8.850;2023-04-09T09:06:40;13.00;79.10
3942;DHT22;1985;48.592;8.850;2023-04-09T09:11:39;12.00;69.00
3942;DHT22;1985;48.592;8.850;2023-04-09T09:14:12;11.80;70.80
3942;DHT22;1985;48.592;8.850;2023-04-09T09:16:40;11.90;70.70
3942;DHT22;1985;48.592;8.850;2023-04-09T09:19:30;12.40;73.40
3942;DHT22;1985;48.592;8.850;2023-04-09T09:22:06;12.60;70.60
3942;DHT22;1985;48.592;8.850;2023-04-09T09:24:33;13.00;71.80
3942;DHT22;1985;48.592;8.850;2023-04-09T09:26:59;13.50;73.40
3942;DHT22;1985;48.592;8.850;2023-04-09T09:29:25;13.60;73.50
3942;DHT22;1985;48.592;8.850;2023-04-09T09:31:53;13.90;73.80
3942;DHT22;1985;48.592;8.850;2023-04-09T09:34:21;14.00;70.50
3942;DHT22;1985;48.592;8.850;2023-04-09T09:36:47;13.80;68.10
3942;DHT22;1985;48.592;8.850;2023-04-09T09:39:14;13.70;67.10
3942;DHT22;1985;48.592;8.850;2023-04-09T09:41:42;13.40;66.50
3942;DHT22;1985;48.592;8.850;2023-04-09T09:44:09;13.30;66.80
3942;DHT22;1985;48.592;8.850;2023-04-09T09:46:37;13.10;66.10
3942;DHT22;1985;48.592;8.850;2023-04-09T09:49:04;12.90;68.40
3942;DHT22;1985;48.592;8.850;2023-04-09T09:51:31;12.80;70.90
3942;DHT22;1985;48.592;8.850;2023-04-09T09:53:58;12.80;71.20
3942;DHT22;1985;48.592;8.850;2023-04-09T09:56:30;12.60;73.00
3942;DHT22;1985;48.592;8.850;2023-04-09T09:59:00;12.50;74.60
3942;DHT22;1985;48.592;8.850;2023-04-09T10:01:28;12.70;72.20
3942;DHT22;1985;48.592;8.850;2023-04-09T10:03:55;12.30;73.00
3942;DHT22;1985;48.592;8.850;2023-04-09T10:06:24;11.80;74.80
3942;DHT22;1985;48.592;8.850;2023-04-09T10:08:51;11.60;73.60
3942;DHT22;1985;48.592;8.850;2023-04-09T10:11:21;11.00;74.10
3942;DHT22;1985;48.592;8.850;2023-04-09T10:13:55;10.80;76.30
3942;DHT22;1985;48.592;8.850;2023-04-09T10:16:21;10.50;77.20
3942;DHT22;1985;48.592;8.850;2023-04-09T10:18:47;10.70;78.20
3942;DHT22;1985;48.592;8.850;2023-04-09T10:23:47;11.40;78.50
3942;DHT22;1985;48.592;8.850;2023-04-09T10:26:17;11.60;77.90
3942;DHT22;1985;48.592;8.850;2023-04-09T10:28:43;11.40;77.20
3942;DHT22;1985;48.592;8.850;2023-04-09T10:31:08;11.00;78.70
3942;DHT22;1985;48.592;8.850;2023-04-09T10:33:37;11.00;79.70
3942;DHT22;1985;48.592;8.850;2023-04-09T10:36:09;11.30;80.60
3942;DHT22;1985;48.592;8.850;2023-04-09T10:38:39;11.50;76.90
3942;DHT22;1985;48.592;8.850;2023-04-09T10:41:29;11.60;74.30
3942;DHT22;1985;48.592;8.850;2023-04-09T10:43:56;11.70;74.90
3942;DHT22;1985;48.592;8.850;2023-04-09T10:46:27;12.00;73.90
3942;DHT22;1985;48.592;8.850;2023-04-09T10:49:16;12.20;73.80
3942;DHT22;1985;48.592;8.850;2023-04-09T10:51:53;12.40;71.00
3942;DHT22;1985;48.592;8.850;2023-04-09T10:59:32;11.80;71.20
3942;DHT22;1985;48.592;8.850;2023-04-09T11:01:58;11.80;72.60
3942;DHT22;1985;48.592;8.850;2023-04-09T11:07:10;11.80;67.20
3942;DHT22;1985;48.592;8.850;2023-04-09T11:09:36;12.30;69.20
3942;DHT22;1985;48.592;8.850;2023-04-09T11:12:02;11.90;70.00
3942;DHT22;1985;48.592;8.850;2023-04-09T11:14:28;12.10;72.80
3942;DHT22;1985;48.592;8.850;2023-04-09T11:16:54;12.30;72.30
3942;DHT22;1985;48.592;8.850;2023-04-09T11:19:20;12.40;72.00
3942;DHT22;1985;48.592;8.850;2023-04-09T11:21:46;12.00;72.60
3942;DHT22;1985;48.592;8.850;2023-04-09T11:24:13;11.50;73.00
3942;DHT22;1985;48.592;8.850;2023-04-09T11:26:39;12.60;73.90
3942;DHT22;1985;48.592;8.850;2023-04-09T11:29:07;16.20;70.00
3942;DHT22;1985;48.592;8.850;2023-04-09T11:31:34;18.30;62.10
3942;DHT22;1985;48.592;8.850;2023-04-09T11:34:00;17.50;59.80
3942;DHT22;1985;48.592;8.850;2023-04-09T11:36:26;16.40;60.30
3942;DHT22;1985;48.592;8.850;2023-04-09T11:38:55;15.70;59.00
3942;DHT22;1985;48.592;8.850;2023-04-09T11:41:37;15.80;62.10
3942;DHT22;1985;48.592;8.850;2023-04-09T11:44:03;18.20;59.80
3942;DHT22;1985;48.592;8.850;2023-04-09T11:46:31;18.60;52.00
3942;DHT22;1985;48.592;8.850;2023-04-09T11:48:57;17.30;53.70
3942;DHT22;1985;48.592;8.850;2023-04-09T11:51:23;15.60;56.30
3942;DHT22;1985;48.592;8.850;2023-04-09T11:53:51;14.30;59.50
3942;DHT22;1985;48.592;8.850;2023-04-09T11:56:17;14.10;61.30
3942;DHT22;1985;48.592;8.850;2023-04-09T11:58:46;14.10;61.40
3942;DHT22;1985;48.592;8.850;2023-04-09T12:01:13;13.90;60.50
3942;DHT22;1985;48.592;8.850;2023-04-09T12:03:39;13.70;61.80
3942;DHT22;1985;48.592;8.850;2023-04-09T12:06:06;13.80;61.60
3942;DHT22;1985;48.592;8.850;2023-04-09T12:08:35;13.70;61.70
3942;DHT22;1985;48.592;8.850;2023-04-09T12:11:13;13.20;62.40
3942;DHT22;1985;48.592;8.850;2023-04-09T12:13:39;12.90;64.50
3942;DHT22;1985;48.592;8.850;2023-04-09T12:16:10;12.60;64.80
3942;DHT22;1985;48.592;8.850;2023-04-09T12:18:36;12.50;63.80
3942;DHT22;1985;48.592;8.850;2023-04-09T12:21:03;12.30;65.90
3942;DHT22;1985;48.592;8.850;2023-04-09T12:23:29;13.30;67.00
3942;DHT22;1985;48.592;8.850;2023-04-09T12:25:58;15.20;62.80
3942;DHT22;1985;48.592;8.850;2023-04-09T12:28:25;16.20;58.80
3942;DHT22;1985;48.592;8.850;2023-04-09T12:30:52;18.00;57.40
3942;DHT22;1985;48.592;8.850;2023-04-09T12:33:18;19.40;52.50
3942;DHT22;1985;48.592;8.850;2023-04-09T12:35:44;20.60;49.80
3942;DHT22;1985;48.592;8.850;2023-04-09T12:38:09;21.10;47.30
3942;DHT22;1985;48.592;8.850;2023-04-09T12:40:35;21.50;46.10
3942;DHT22;1985;48.592;8.850;2023-04-09T12:43:01;21.00;47.10
3942;DHT22;1985;48.592;8.850;2023-04-09T12:45:29;20.70;46.60
3942;DHT22;1985;48.592;8.850;2023-04-09T12:47:54;20.90;44.30
3942;DHT22;1985;48.592;8.850;2023-04-09T12:50:21;20.10;45.20
3942;DHT22;1985;48.592;8.850;2023-04-09T12:52:46;20.10;47.00
3942;DHT22;1985;48.592;8.850;2023-04-09T12:55:12;19.20;46.50
3942;DHT22;1985;48.592;8.850;2023-04-09T12:57:40;17.80;48.60
3942;DHT22;1985;48.592;8.850;2023-04-09T13:00:06;18.10;49.20
3942;DHT22;1985;48.592;8.850;2023-04-09T13:02:32;18.40;49.70
3942;DHT22;1985;48.592;8.850;2023-04-09T13:04:58;17.70;47.30
3942;DHT22;1985;48.592;8.850;2023-04-09T13:07:24;17.60;50.50
3942;DHT22;1985;48.592;8.850;2023-04-09T13:09:53;18.20;51.00
3942;DHT22;1985;48.592;8.850;2023-04-09T13:12:19;18.30;47.30
3942;DHT22;1985;48.592;8.850;2023-04-09T13:14:47;17.40;48.30
3942;DHT22;1985;48.592;8.850;2023-04-09T13:17:13;16.90;48.40
3942;DHT22;1985;48.592;8.850;2023-04-09T13:19:39;16.40;49.00
3942;DHT22;1985;48.592;8.850;2023-04-09T13:22:05;15.70;49.70
3942;DHT22;1985;48.592;8.850;2023-04-09T13:24:33;15.60;53.10
3942;DHT22;1985;48.592;8.850;2023-04-09T13:26:59;15.20;51.70
3942;DHT22;1985;48.592;8.850;2023-04-09T13:29:25;15.00;51.60
3942;DHT22;1985;48.592;8.850;2023-04-09T13:31:54;15.10;51.90
3942;DHT22;1985;48.592;8.850;2023-04-09T13:34:20;15.00;52.50
3942;DHT22;1985;48.592;8.850;2023-04-09T13:36:46;15.00;52.40
3942;DHT22;1985;48.592;8.850;2023-04-09T13:39:11;14.50;53.60
3942;DHT22;1985;48.592;8.850;2023-04-09T13:41:37;14.40;53.20
3942;DHT22;1985;48.592;8.850;2023-04-09T13:44:03;14.90;55.50
3942;DHT22;1985;48.592;8.850;2023-04-09T13:46:28;15.20;53.50
3942;DHT22;1985;48.592;8.850;2023-04-09T13:48:54;15.10;52.70
3942;DHT22;1985;48.592;8.850;2023-04-09T13:51:21;15.40;52.60
3942;DHT22;1985;48.592;8.850;2023-04-09T13:53:47;15.50;52.50
3942;DHT22;1985;48.592;8.850;2023-04-09T13:56:13;16.10;52.80
3942;DHT22;1985;48.592;8.850;2023-04-09T13:58:39;16.40;53.30
3942;DHT22;1985;48.592;8.850;2023-04-09T14:01:05;17.20;52.50
3942;DHT22;1985;48.592;8.850;2023-04-09T14:03:30;17.70;50.60
3942;DHT22;1985;48.592;8.850;2023-04-09T14:05:56;17.80;50.00
3942;DHT22;1985;48.592;8.850;2023-04-09T14:08:22;18.30;50.10
3942;DHT22;1985;48.592;8.850;2023-04-09T14:10:47;19.10;48.70
3942;DHT22;1985;48.592;8.850;2023-04-09T14:13:13;19.60;48.50
3942;DHT22;1985;48.592;8.850;2023-04-09T14:15:39;20.50;46.70
3942;DHT22;1985;48.592;8.850;2023-04-09T14:18:05;21.40;45.10
3942;DHT22;1985;48.592;8.850;2023-04-09T14:20:33;21.70;44.40
3942;DHT22;1985;48.592;8.850;2023-04-09T14:22:59;21.10;44.10
3942;DHT22;1985;48.592;8.850;2023-04-09T14:25:24;20.40;44.10
3942;DHT22;1985;48.592;8.850;2023-04-09T14:27:50;19.90;45.00
3942;DHT22;1985;48.592;8.850;2023-04-09T14:30:16;19.80;43.80
3942;DHT22;1985;48.592;8.850;2023-04-09T14:32:42;19.50;44.30
3942;DHT22;1985;48.592;8.850;2023-04-09T14:35:08;17.20;45.30
3942;DHT22;1985;48.592;8.850;2023-04-09T14:37:34;16.30;48.00
3942;DHT22;1985;48.592;8.850;2023-04-09T14:39:59;16.10;49.50
3942;DHT22;1985;48.592;8.850;2023-04-09T14:42:25;16.10;49.80
3942;DHT22;1985;48.592;8.850;2023-04-09T14:44:51;16.10;49.90
3942;DHT22;1985;48.592;8.850;2023-04-09T14:47:16;16.20;49.50
3942;DHT22;1985;48.592;8.850;2023-04-09T14:49:42;16.00;49.50
3942;DHT22;1985;48.592;8.850;2023-04-09T14:52:07;15.90;50.10
3942;DHT22;1985;48.592;8.850;2023-04-09T14:54:33;15.70;49.80
3942;DHT22;1985;48.592;8.850;2023-04-09T14:56:58;15.40;50.00
3942;DHT22;1985;48.592;8.850;2023-04-09T14:59:26;15.20;49.80
3942;DHT22;1985;48.592;8.850;2023-04-09T15:01:52;15.10;49.60
3942;DHT22;1985;48.592;8.850;2023-04-09T15:04:18;15.50;50.70
3942;DHT22;1985;48.592;8.850;2023-04-09T15:06:43;16.10;50.80
3942;DHT22;1985;48.592;8.850;2023-04-09T15:09:09;16.30;49.00
3942;DHT22;1985;48.592;8.850;2023-04-09T15:11:35;16.50;48.80
3942;DHT22;1985;48.592;8.850;2023-04-09T15:14:01;16.90;49.70
3942;DHT22;1985;48.592;8.850;2023-04-09T15:16:27;17.20;48.70
3942;DHT22;1985;48.592;8.850;2023-04-09T15:18:54;17.40;48.50
3942;DHT22;1985;48.592;8.850;2023-04-09T15:21:22;17.80;48.40
3942;DHT22;1985;48.592;8.850;2023-04-09T15:23:49;17.40;47.10
3942;DHT22;1985;48.592;8.850;2023-04-09T15:26:15;17.10;48.30
3942;DHT22;1985;48.592;8.850;2023-04-09T15:28:41;16.80;49.00
3942;DHT22;1985;48.592;8.850;2023-04-09T15:31:07;16.40;49.80
3942;DHT22;1985;48.592;8.850;2023-04-09T15:33:32;16.00;49.30
3942;DHT22;1985;48.592;8.850;2023-04-09T15:35:58;16.00;50.00
3942;DHT22;1985;48.592;8.850;2023-04-09T15:38:24;16.10;50.60
3942;DHT22;1985;48.592;8.850;2023-04-09T15:40:51;16.50;49.00
3942;DHT22;1985;48.592;8.850;2023-04-09T15:43:16;16.60;49.80
3942;DHT22;1985;48.592;8.850;2023-04-09T15:45:43;16.90;50.40
3942;DHT22;1985;48.592;8.850;2023-04-09T15:48:09;17.00;49.50
3942;DHT22;1985;48.592;8.850;2023-04-09T15:50:35;17.00;49.40
3942;DHT22;1985;48.592;8.850;2023-04-09T15:53:01;16.70;48.90
3942;DHT22;1985;48.592;8.850;2023-04-09T15:55:26;16.50;49.30
3942;DHT22;1985;48.592;8.850;2023-04-09T15:57:52;16.60;49.80
3942;DHT22;1985;48.592;8.850;2023-04-09T16:00:19;16.20;50.10
3942;DHT22;1985;48.592;8.850;2023-04-09T16:02:45;15.90;50.40
3942;DHT22;1985;48.592;8.850;2023-04-09T16:05:11;15.70;51.10
3942;DHT22;1985;48.592;8.850;2023-04-09T16:07:36;15.50;51.10
3942;DHT22;1985;48.592;8.850;2023-04-09T16:10:04;15.40;50.70
3942;DHT22;1985;48.592;8.850;2023-04-09T16:12:30;15.10;51.60
3942;DHT22;1985;48.592;8.850;2023-04-09T16:14:55;15.00;52.00
3942;DHT22;1985;48.592;8.850;2023-04-09T16:17:21;15.00;52.10
3942;DHT22;1985;48.592;8.850;2023-04-09T16:19:47;15.00;52.30
3942;DHT22;1985;48.592;8.850;2023-04-09T16:22:12;15.00;51.60
3942;DHT22;1985;48.592;8.850;2023-04-09T16:24:38;15.00;52.00
3942;DHT22;1985;48.592;8.850;2023-04-09T16:27:03;14.90;51.50
3942;DHT22;1985;48.592;8.850;2023-04-09T16:29:29;15.00;52.50
3942;DHT22;1985;48.592;8.850;2023-04-09T16:31:55;15.00;52.20
3942;DHT22;1985;48.592;8.850;2023-04-09T16:34:21;15.00;51.90